sensor_id;sensor_type;location;lat;lon;timestamp;P1;durP1;ratioP1;P2;durP2;ratioP2
6898;SDS011;3488;42.616;23.350;2022-10-29T00:00:33;1.50;;;1.40;;
6898;SDS011;3488;42.616;23.350;2022-10-29T00:03:02;1.35;;;1.35;;
6898;SDS011;3488;42.616;23.350;2022-10-29T00:05:29;3.10;;;1.25;;
6898;SDS011;3488;42.616;23.350;2022-10-29T00:07:56;1.75;;;1.52;;
6898;SDS011;3488;42.616;23.350;2022-10-29T00:10:23;1.38;;;1.33;;
6898;SDS011;3488;42.616;23.350;2022-10-29T00:12:50;1.52;;;1.42;;
6898;SDS011;3488;42.616;23.350;2022-10-29T00:15:17;1.40;;;1.30;;
6898;SDS011;3488;42.616;23.350;2022-10-29T00:17:44;1.60;;;1.50;;
6898;SDS011;3488;42.616;23.350;2022-10-29T00:20:12;3.13;;;2.28;;
6898;SDS011;3488;42.616;23.350;2022-10-29T00:22:39;2.88;;;1.80;;
6898;SDS011;3488;42.616;23.350;2022-10-29T00:25:06;1.85;;;1.75;;
6898;SDS011;3488;42.616;23.350;2022-10-29T00:27:33;1.55;;;1.45;;
6898;SDS011;3488;42.616;23.350;2022-10-29T00:30:01;1.75;;;1.65;;
6898;SDS011;3488;42.616;23.350;2022-10-29T00:32:27;2.35;;;1.85;;
6898;SDS011;3488;42.616;23.350;2022-10-29T00:34:57;2.05;;;1.95;;
6898;SDS011;3488;42.616;23.350;2022-10-29T00:37:25;2.55;;;1.75;;
6898;SDS011;3488;42.616;23.350;2022-10-29T00:39:52;1.60;;;1.50;;
6898;SDS011;3488;42.616;23.350;2022-10-29T00:42:19;2.28;;;1.85;;
6898;SDS011;3488;42.616;23.350;2022-10-29T00:44:46;1.95;;;1.85;;
6898;SDS011;3488;42.616;23.350;2022-10-29T00:47:15;2.00;;;1.90;;
6898;SDS011;3488;42.616;23.350;2022-10-29T00:49:46;1.70;;;1.60;;
6898;SDS011;3488;42.616;23.350;2022-10-29T00:52:15;2.58;;;1.90;;
6898;SDS011;3488;42.616;23.350;2022-10-29T00:54:49;2.72;;;2.15;;
6898;SDS011;3488;42.616;23.350;2022-10-29T00:57:19;2.08;;;1.90;;
6898;SDS011;3488;42.616;23.350;2022-10-29T00:59:52;1.77;;;1.67;;
6898;SDS011;3488;42.616;23.350;2022-10-29T01:02:20;2.00;;;1.45;;
6898;SDS011;3488;42.616;23.350;2022-10-29T01:04:48;1.92;;;1.83;;
6898;SDS011;3488;42.616;23.350;2022-10-29T01:07:17;1.23;;;1.17;;
6898;SDS011;3488;42.616;23.350;2022-10-29T01:09:44;1.45;;;1.35;;
6898;SDS011;3488;42.616;23.350;2022-10-29T01:15:11;1.80;;;1.65;;
6898;SDS011;3488;42.616;23.350;2022-10-29T01:17:49;2.20;;;2.10;;
6898;SDS011;3488;42.616;23.350;2022-10-29T01:23:39;1.80;;;1.70;;
6898;SDS011;3488;42.616;23.350;2022-10-29T01:26:36;1.90;;;1.80;;
6898;SDS011;3488;42.616;23.350;2022-10-29T01:29:34;2.08;;;1.98;;
6898;SDS011;3488;42.616;23.350;2022-10-29T01:32:16;1.50;;;1.40;;
6898;SDS011;3488;42.616;23.350;2022-10-29T01:34:49;1.40;;;1.40;;
6898;SDS011;3488;42.616;23.350;2022-10-29T01:37:23;1.30;;;1.20;;
6898;SDS011;3488;42.616;23.350;2022-10-29T01:39:59;3.15;;;1.80;;
6898;SDS011;3488;42.616;23.350;2022-10-29T01:42:31;2.15;;;1.90;;
6898;SDS011;3488;42.616;23.350;2022-10-29T01:45:05;2.88;;;2.10;;
6898;SDS011;3488;42.616;23.350;2022-10-29T01:47:39;2.53;;;1.73;;
6898;SDS011;3488;42.616;23.350;2022-10-29T01:50:10;3.63;;;1.80;;
6898;SDS011;3488;42.616;23.350;2022-10-29T01:52:43;2.22;;;2.03;;
6898;SDS011;3488;42.616;23.350;2022-10-29T01:55:14;2.35;;;2.10;;
6898;SDS011;3488;42.616;23.350;2022-10-29T01:57:42;2.08;;;1.88;;
6898;SDS011;3488;42.616;23.350;2022-10-29T02:00:10;2.25;;;1.98;;
6898;SDS011;3488;42.616;23.350;2022-10-29T02:02:51;2.67;;;1.90;;
6898;SDS011;3488;42.616;23.350;2022-10-29T02:05:27;1.42;;;1.35;;
6898;SDS011;3488;42.616;23.350;2022-10-29T02:08:01;1.48;;;1.48;;
6898;SDS011;3488;42.616;23.350;2022-10-29T02:10:37;2.78;;;1.67;;
6898;SDS011;3488;42.616;23.350;2022-10-29T02:13:09;1.92;;;1.70;;
6898;SDS011;3488;42.616;23.350;2022-10-29T02:15:42;2.53;;;1.85;;
6898;SDS011;3488;42.616;23.350;2022-10-29T02:18:14;2.00;;;1.90;;
6898;SDS011;3488;42.616;23.350;2022-10-29T02:20:43;2.13;;;2.03;;
6898;SDS011;3488;42.616;23.350;2022-10-29T02:23:11;2.08;;;1.95;;
6898;SDS011;3488;42.616;23.350;2022-10-29T02:25:38;2.38;;;2.08;;
6898;SDS011;3488;42.616;23.350;2022-10-29T02:28:05;2.28;;;2.17;;
6898;SDS011;3488;42.616;23.350;2022-10-29T02:30:32;4.28;;;2.33;;
6898;SDS011;3488;42.616;23.350;2022-10-29T02:32:59;2.15;;;2.05;;
6898;SDS011;3488;42.616;23.350;2022-10-29T02:35:27;2.45;;;1.80;;
6898;SDS011;3488;42.616;23.350;2022-10-29T02:37:54;1.92;;;1.83;;
6898;SDS011;3488;42.616;23.350;2022-10-29T02:40:21;2.15;;;2.00;;
6898;SDS011;3488;42.616;23.350;2022-10-29T02:42:47;1.30;;;1.20;;
6898;SDS011;3488;42.616;23.350;2022-10-29T02:45:14;1.10;;;1.00;;
6898;SDS011;3488;42.616;23.350;2022-10-29T02:47:41;2.13;;;1.60;;
6898;SDS011;3488;42.616;23.350;2022-10-29T02:50:08;3.13;;;1.70;;
6898;SDS011;3488;42.616;23.350;2022-10-29T02:52:36;4.47;;;3.53;;
6898;SDS011;3488;42.616;23.350;2022-10-29T02:55:04;3.70;;;3.40;;
6898;SDS011;3488;42.616;23.350;2022-10-29T02:57:31;3.90;;;3.60;;
6898;SDS011;3488;42.616;23.350;2022-10-29T02:59:58;4.00;;;3.42;;
6898;SDS011;3488;42.616;23.350;2022-10-29T03:02:25;4.15;;;3.53;;
6898;SDS011;3488;42.616;23.350;2022-10-29T03:04:51;3.67;;;3.38;;
6898;SDS011;3488;42.616;23.350;2022-10-29T03:07:18;5.15;;;3.85;;
6898;SDS011;3488;42.616;23.350;2022-10-29T03:09:47;2.67;;;2.47;;
6898;SDS011;3488;42.616;23.350;2022-10-29T03:12:14;3.97;;;2.42;;
6898;SDS011;3488;42.616;23.350;2022-10-29T03:14:41;4.40;;;2.65;;
6898;SDS011;3488;42.616;23.350;2022-10-29T03:17:07;3.25;;;2.95;;
6898;SDS011;3488;42.616;23.350;2022-10-29T03:19:34;2.28;;;2.08;;
6898;SDS011;3488;42.616;23.350;2022-10-29T03:22:01;3.47;;;1.98;;
6898;SDS011;3488;42.616;23.350;2022-10-29T03:24:28;1.92;;;1.83;;
6898;SDS011;3488;42.616;23.350;2022-10-29T03:26:56;1.45;;;1.35;;
6898;SDS011;3488;42.616;23.350;2022-10-29T03:29:23;1.50;;;1.40;;
6898;SDS011;3488;42.616;23.350;2022-10-29T03:31:49;1.20;;;1.20;;
6898;SDS011;3488;42.616;23.350;2022-10-29T03:34:16;1.70;;;1.60;;
6898;SDS011;3488;42.616;23.350;2022-10-29T03:36:43;1.63;;;1.52;;
6898;SDS011;3488;42.616;23.350;2022-10-29T03:39:10;1.63;;;1.58;;
6898;SDS011;3488;42.616;23.350;2022-10-29T03:41:37;1.33;;;1.23;;
6898;SDS011;3488;42.616;23.350;2022-10-29T03:44:06;1.42;;;1.33;;
6898;SDS011;3488;42.616;23.350;2022-10-29T03:46:33;1.90;;;1.77;;
6898;SDS011;3488;42.616;23.350;2022-10-29T03:48:59;2.13;;;1.23;;
6898;SDS011;3488;42.616;23.350;2022-10-29T03:51:26;1.30;;;1.30;;
6898;SDS011;3488;42.616;23.350;2022-10-29T03:53:53;1.52;;;1.42;;
6898;SDS011;3488;42.616;23.350;2022-10-29T03:56:20;1.90;;;1.80;;
6898;SDS011;3488;42.616;23.350;2022-10-29T03:58:46;3.72;;;2.60;;
6898;SDS011;3488;42.616;23.350;2022-10-29T04:01:15;3.47;;;2.38;;
6898;SDS011;3488;42.616;23.350;2022-10-29T04:03:45;1.70;;;1.60;;
6898;SDS011;3488;42.616;23.350;2022-10-29T04:06:12;2.28;;;2.08;;
6898;SDS011;3488;42.616;23.350;2022-10-29T04:08:40;3.13;;;2.92;;
6898;SDS011;3488;42.616;23.350;2022-10-29T04:11:08;3.17;;;2.97;;
6898;SDS011;3488;42.616;23.350;2022-10-29T04:13:36;2.47;;;2.38;;
6898;SDS011;3488;42.616;23.350;2022-10-29T04:16:03;5.07;;;3.92;;
6898;SDS011;3488;42.616;23.350;2022-10-29T04:18:32;3.45;;;2.90;;
6898;SDS011;3488;42.616;23.350;2022-10-29T04:21:01;7.38;;;5.07;;
6898;SDS011;3488;42.616;23.350;2022-10-29T04:23:28;4.82;;;4.15;;
6898;SDS011;3488;42.616;23.350;2022-10-29T04:25:56;5.25;;;4.18;;
6898;SDS011;3488;42.616;23.350;2022-10-29T04:28:24;8.02;;;5.10;;
6898;SDS011;3488;42.616;23.350;2022-10-29T04:30:52;5.95;;;3.88;;
6898;SDS011;3488;42.616;23.350;2022-10-29T04:33:18;4.85;;;4.15;;
6898;SDS011;3488;42.616;23.350;2022-10-29T04:35:51;5.32;;;4.03;;
6898;SDS011;3488;42.616;23.350;2022-10-29T04:38:18;6.32;;;4.03;;
6898;SDS011;3488;42.616;23.350;2022-10-29T04:40:46;4.22;;;3.83;;
6898;SDS011;3488;42.616;23.350;2022-10-29T04:43:13;5.15;;;4.63;;
6898;SDS011;3488;42.616;23.350;2022-10-29T04:45:40;8.18;;;5.22;;
6898;SDS011;3488;42.616;23.350;2022-10-29T04:48:07;3.22;;;3.03;;
6898;SDS011;3488;42.616;23.350;2022-10-29T04:50:35;3.30;;;3.08;;
6898;SDS011;3488;42.616;23.350;2022-10-29T04:53:05;6.97;;;3.25;;
6898;SDS011;3488;42.616;23.350;2022-10-29T04:55:34;3.20;;;2.72;;
6898;SDS011;3488;42.616;23.350;2022-10-29T04:58:03;6.63;;;3.83;;
6898;SDS011;3488;42.616;23.350;2022-10-29T05:00:30;4.93;;;3.78;;
6898;SDS011;3488;42.616;23.350;2022-10-29T05:02:58;3.92;;;3.67;;
6898;SDS011;3488;42.616;23.350;2022-10-29T05:05:25;5.97;;;4.63;;
6898;SDS011;3488;42.616;23.350;2022-10-29T05:07:55;6.30;;;4.90;;
6898;SDS011;3488;42.616;23.350;2022-10-29T05:10:26;6.10;;;4.85;;
6898;SDS011;3488;42.616;23.350;2022-10-29T05:12:57;4.75;;;4.40;;
6898;SDS011;3488;42.616;23.350;2022-10-29T05:15:25;5.05;;;4.40;;
6898;SDS011;3488;42.616;23.350;2022-10-29T05:17:53;4.25;;;3.60;;
6898;SDS011;3488;42.616;23.350;2022-10-29T05:20:20;3.50;;;3.00;;
6898;SDS011;3488;42.616;23.350;2022-10-29T05:22:48;3.53;;;3.20;;
6898;SDS011;3488;42.616;23.350;2022-10-29T05:25:15;3.70;;;3.40;;
6898;SDS011;3488;42.616;23.350;2022-10-29T05:27:44;4.07;;;3.63;;
6898;SDS011;3488;42.616;23.350;2022-10-29T05:30:10;4.65;;;4.20;;
6898;SDS011;3488;42.616;23.350;2022-10-29T05:32:37;7.75;;;5.30;;
6898;SDS011;3488;42.616;23.350;2022-10-29T05:35:05;5.65;;;3.13;;
6898;SDS011;3488;42.616;23.350;2022-10-29T05:37:32;6.53;;;5.60;;
6898;SDS011;3488;42.616;23.350;2022-10-29T05:39:59;7.00;;;5.00;;
6898;SDS011;3488;42.616;23.350;2022-10-29T05:42:26;5.35;;;4.80;;
6898;SDS011;3488;42.616;23.350;2022-10-29T05:44:54;5.75;;;5.35;;
6898;SDS011;3488;42.616;23.350;2022-10-29T05:47:21;5.43;;;4.47;;
6898;SDS011;3488;42.616;23.350;2022-10-29T05:49:48;7.85;;;4.00;;
6898;SDS011;3488;42.616;23.350;2022-10-29T05:52:15;5.32;;;4.53;;
6898;SDS011;3488;42.616;23.350;2022-10-29T05:54:46;6.63;;;4.35;;
6898;SDS011;3488;42.616;23.350;2022-10-29T05:57:13;8.38;;;4.68;;
6898;SDS011;3488;42.616;23.350;2022-10-29T05:59:40;7.18;;;4.55;;
6898;SDS011;3488;42.616;23.350;2022-10-29T06:02:09;4.97;;;4.53;;
6898;SDS011;3488;42.616;23.350;2022-10-29T06:04:35;4.63;;;4.18;;
6898;SDS011;3488;42.616;23.350;2022-10-29T06:07:03;6.53;;;4.70;;
6898;SDS011;3488;42.616;23.350;2022-10-29T06:09:30;4.68;;;4.28;;
6898;SDS011;3488;42.616;23.350;2022-10-29T06:11:57;7.55;;;5.30;;
6898;SDS011;3488;42.616;23.350;2022-10-29T06:14:24;7.05;;;4.90;;
6898;SDS011;3488;42.616;23.350;2022-10-29T06:16:51;5.70;;;4.70;;
6898;SDS011;3488;42.616;23.350;2022-10-29T06:19:19;6.45;;;4.63;;
6898;SDS011;3488;42.616;23.350;2022-10-29T06:21:46;8.32;;;4.50;;
6898;SDS011;3488;42.616;23.350;2022-10-29T06:24:13;5.50;;;4.50;;
6898;SDS011;3488;42.616;23.350;2022-10-29T06:26:40;5.95;;;4.72;;
6898;SDS011;3488;42.616;23.350;2022-10-29T06:29:07;6.57;;;4.20;;
6898;SDS011;3488;42.616;23.350;2022-10-29T06:31:34;5.57;;;4.63;;
6898;SDS011;3488;42.616;23.350;2022-10-29T06:34:01;6.88;;;4.53;;
6898;SDS011;3488;42.616;23.350;2022-10-29T06:36:29;5.03;;;4.63;;
6898;SDS011;3488;42.616;23.350;2022-10-29T06:38:56;4.82;;;4.40;;
6898;SDS011;3488;42.616;23.350;2022-10-29T06:41:23;6.85;;;4.78;;
6898;SDS011;3488;42.616;23.350;2022-10-29T06:43:51;14.23;;;6.57;;
6898;SDS011;3488;42.616;23.350;2022-10-29T06:46:18;18.08;;;6.93;;
6898;SDS011;3488;42.616;23.350;2022-10-29T06:48:45;17.80;;;7.30;;
6898;SDS011;3488;42.616;23.350;2022-10-29T06:51:12;17.15;;;5.65;;
6898;SDS011;3488;42.616;23.350;2022-10-29T06:53:40;18.98;;;6.93;;
6898;SDS011;3488;42.616;23.350;2022-10-29T06:56:07;10.63;;;6.97;;
6898;SDS011;3488;42.616;23.350;2022-10-29T06:58:34;10.90;;;6.28;;
6898;SDS011;3488;42.616;23.350;2022-10-29T07:01:01;15.02;;;7.15;;
6898;SDS011;3488;42.616;23.350;2022-10-29T07:03:28;14.02;;;7.18;;
6898;SDS011;3488;42.616;23.350;2022-10-29T07:05:56;8.85;;;6.95;;
6898;SDS011;3488;42.616;23.350;2022-10-29T07:08:24;9.82;;;7.25;;
6898;SDS011;3488;42.616;23.350;2022-10-29T07:10:52;10.43;;;6.97;;
6898;SDS011;3488;42.616;23.350;2022-10-29T07:13:19;10.95;;;6.20;;
6898;SDS011;3488;42.616;23.350;2022-10-29T07:15:46;9.48;;;6.72;;
6898;SDS011;3488;42.616;23.350;2022-10-29T07:18:14;9.95;;;7.13;;
6898;SDS011;3488;42.616;23.350;2022-10-29T07:20:42;13.32;;;7.65;;
6898;SDS011;3488;42.616;23.350;2022-10-29T07:23:10;8.82;;;6.85;;
6898;SDS011;3488;42.616;23.350;2022-10-29T07:25:38;9.93;;;7.28;;
6898;SDS011;3488;42.616;23.350;2022-10-29T07:28:10;10.50;;;6.95;;
6898;SDS011;3488;42.616;23.350;2022-10-29T07:30:38;15.05;;;7.53;;
6898;SDS011;3488;42.616;23.350;2022-10-29T07:33:06;13.52;;;8.55;;
6898;SDS011;3488;42.616;23.350;2022-10-29T07:35:32;10.50;;;7.65;;
6898;SDS011;3488;42.616;23.350;2022-10-29T07:38:00;14.30;;;8.40;;
6898;SDS011;3488;42.616;23.350;2022-10-29T07:40:28;10.02;;;7.57;;
6898;SDS011;3488;42.616;23.350;2022-10-29T07:42:55;12.73;;;8.73;;
6898;SDS011;3488;42.616;23.350;2022-10-29T07:45:23;12.20;;;8.63;;
6898;SDS011;3488;42.616;23.350;2022-10-29T07:47:57;17.23;;;8.40;;
6898;SDS011;3488;42.616;23.350;2022-10-29T07:50:25;14.23;;;8.93;;
6898;SDS011;3488;42.616;23.350;2022-10-29T07:52:52;11.48;;;8.75;;
6898;SDS011;3488;42.616;23.350;2022-10-29T07:55:19;13.82;;;8.93;;
6898;SDS011;3488;42.616;23.350;2022-10-29T07:57:46;19.25;;;9.75;;
6898;SDS011;3488;42.616;23.350;2022-10-29T08:00:23;14.45;;;9.05;;
6898;SDS011;3488;42.616;23.350;2022-10-29T08:02:51;12.45;;;8.85;;
6898;SDS011;3488;42.616;23.350;2022-10-29T08:05:19;12.05;;;8.98;;
6898;SDS011;3488;42.616;23.350;2022-10-29T08:07:46;18.95;;;8.73;;
6898;SDS011;3488;42.616;23.350;2022-10-29T08:10:13;17.08;;;8.75;;
6898;SDS011;3488;42.616;23.350;2022-10-29T08:12:46;18.95;;;9.95;;
6898;SDS011;3488;42.616;23.350;2022-10-29T08:15:14;14.05;;;8.40;;
6898;SDS011;3488;42.616;23.350;2022-10-29T08:17:43;17.83;;;9.05;;
6898;SDS011;3488;42.616;23.350;2022-10-29T08:20:10;10.70;;;7.45;;
6898;SDS011;3488;42.616;23.350;2022-10-29T08:22:38;13.48;;;8.25;;
6898;SDS011;3488;42.616;23.350;2022-10-29T08:25:05;19.13;;;8.82;;
6898;SDS011;3488;42.616;23.350;2022-10-29T08:27:32;12.68;;;8.25;;
6898;SDS011;3488;42.616;23.350;2022-10-29T08:29:59;20.25;;;9.40;;
6898;SDS011;3488;42.616;23.350;2022-10-29T08:32:26;22.33;;;9.25;;
6898;SDS011;3488;42.616;23.350;2022-10-29T08:34:57;15.38;;;9.35;;
6898;SDS011;3488;42.616;23.350;2022-10-29T08:37:23;21.25;;;8.75;;
6898;SDS011;3488;42.616;23.350;2022-10-29T08:39:50;12.43;;;8.60;;
6898;SDS011;3488;42.616;23.350;2022-10-29T08:42:20;16.27;;;9.52;;
6898;SDS011;3488;42.616;23.350;2022-10-29T08:45:07;14.38;;;8.48;;
6898;SDS011;3488;42.616;23.350;2022-10-29T08:47:46;14.68;;;8.82;;
6898;SDS011;3488;42.616;23.350;2022-10-29T08:50:30;15.05;;;9.18;;
6898;SDS011;3488;42.616;23.350;2022-10-29T08:53:05;13.43;;;9.20;;
6898;SDS011;3488;42.616;23.350;2022-10-29T08:55:40;19.67;;;9.43;;
6898;SDS011;3488;42.616;23.350;2022-10-29T08:58:10;29.35;;;10.65;;
6898;SDS011;3488;42.616;23.350;2022-10-29T09:00:47;16.65;;;10.32;;
6898;SDS011;3488;42.616;23.350;2022-10-29T09:03:19;19.70;;;10.80;;
6898;SDS011;3488;42.616;23.350;2022-10-29T09:05:49;14.88;;;10.15;;
6898;SDS011;3488;42.616;23.350;2022-10-29T09:08:24;10.68;;;7.80;;
6898;SDS011;3488;42.616;23.350;2022-10-29T09:11:01;12.95;;;9.52;;
6898;SDS011;3488;42.616;23.350;2022-10-29T09:13:40;13.23;;;9.27;;
6898;SDS011;3488;42.616;23.350;2022-10-29T09:16:19;16.27;;;9.25;;
6898;SDS011;3488;42.616;23.350;2022-10-29T09:19:04;27.88;;;9.85;;
6898;SDS011;3488;42.616;23.350;2022-10-29T09:21:47;18.00;;;9.23;;
6898;SDS011;3488;42.616;23.350;2022-10-29T09:24:23;12.55;;;8.88;;
6898;SDS011;3488;42.616;23.350;2022-10-29T09:26:56;12.95;;;9.10;;
6898;SDS011;3488;42.616;23.350;2022-10-29T09:29:26;19.88;;;10.27;;
6898;SDS011;3488;42.616;23.350;2022-10-29T09:32:02;14.38;;;9.13;;
6898;SDS011;3488;42.616;23.350;2022-10-29T09:34:33;17.90;;;10.05;;
6898;SDS011;3488;42.616;23.350;2022-10-29T09:37:10;14.50;;;9.10;;
6898;SDS011;3488;42.616;23.350;2022-10-29T09:39:41;12.73;;;9.43;;
6898;SDS011;3488;42.616;23.350;2022-10-29T09:42:10;11.65;;;8.88;;
6898;SDS011;3488;42.616;23.350;2022-10-29T09:44:42;15.45;;;8.63;;
6898;SDS011;3488;42.616;23.350;2022-10-29T09:47:15;14.07;;;8.20;;
6898;SDS011;3488;42.616;23.350;2022-10-29T09:49:53;12.70;;;7.88;;
6898;SDS011;3488;42.616;23.350;2022-10-29T09:52:33;11.77;;;7.95;;
6898;SDS011;3488;42.616;23.350;2022-10-29T09:55:02;19.58;;;7.93;;
6898;SDS011;3488;42.616;23.350;2022-10-29T09:57:33;12.10;;;6.97;;
6898;SDS011;3488;42.616;23.350;2022-10-29T10:00:02;15.98;;;7.82;;
6898;SDS011;3488;42.616;23.350;2022-10-29T10:02:32;14.13;;;7.38;;
6898;SDS011;3488;42.616;23.350;2022-10-29T10:05:03;10.10;;;6.95;;
6898;SDS011;3488;42.616;23.350;2022-10-29T10:07:32;12.65;;;7.00;;
6898;SDS011;3488;42.616;23.350;2022-10-29T10:09:59;13.10;;;8.18;;
6898;SDS011;3488;42.616;23.350;2022-10-29T10:12:28;10.77;;;6.70;;
6898;SDS011;3488;42.616;23.350;2022-10-29T10:15:16;10.65;;;7.10;;
6898;SDS011;3488;42.616;23.350;2022-10-29T10:17:52;12.23;;;6.15;;
6898;SDS011;3488;42.616;23.350;2022-10-29T10:20:25;9.27;;;6.30;;
6898;SDS011;3488;42.616;23.350;2022-10-29T10:23:15;8.40;;;5.50;;
6898;SDS011;3488;42.616;23.350;2022-10-29T10:25:46;8.27;;;5.47;;
6898;SDS011;3488;42.616;23.350;2022-10-29T10:28:17;7.07;;;4.93;;
6898;SDS011;3488;42.616;23.350;2022-10-29T10:30:45;5.50;;;3.72;;
6898;SDS011;3488;42.616;23.350;2022-10-29T10:33:31;7.00;;;4.35;;
6898;SDS011;3488;42.616;23.350;2022-10-29T10:36:01;8.35;;;4.40;;
6898;SDS011;3488;42.616;23.350;2022-10-29T10:38:40;8.85;;;5.43;;
6898;SDS011;3488;42.616;23.350;2022-10-29T10:41:14;4.40;;;3.95;;
6898;SDS011;3488;42.616;23.350;2022-10-29T10:43:46;5.70;;;3.72;;
6898;SDS011;3488;42.616;23.350;2022-10-29T10:46:15;6.18;;;3.53;;
6898;SDS011;3488;42.616;23.350;2022-10-29T10:48:55;4.55;;;4.03;;
6898;SDS011;3488;42.616;23.350;2022-10-29T10:51:24;4.38;;;3.08;;
6898;SDS011;3488;42.616;23.350;2022-10-29T10:53:54;3.83;;;3.45;;
6898;SDS011;3488;42.616;23.350;2022-10-29T10:56:22;3.88;;;3.58;;
6898;SDS011;3488;42.616;23.350;2022-10-29T10:58:51;3.15;;;2.85;;
6898;SDS011;3488;42.616;23.350;2022-10-29T11:01:27;5.28;;;3.13;;
6898;SDS011;3488;42.616;23.350;2022-10-29T11:03:59;3.15;;;2.70;;
6898;SDS011;3488;42.616;23.350;2022-10-29T11:06:38;4.80;;;2.17;;
6898;SDS011;3488;42.616;23.350;2022-10-29T11:09:12;2.10;;;2.00;;
6898;SDS011;3488;42.616;23.350;2022-10-29T11:11:53;3.00;;;2.15;;
6898;SDS011;3488;42.616;23.350;2022-10-29T11:14:26;2.70;;;2.00;;
6898;SDS011;3488;42.616;23.350;2022-10-29T11:16:58;4.05;;;2.30;;
6898;SDS011;3488;42.616;23.350;2022-10-29T11:19:28;2.65;;;2.42;;
6898;SDS011;3488;42.616;23.350;2022-10-29T11:22:01;5.65;;;2.45;;
6898;SDS011;3488;42.616;23.350;2022-10-29T11:24:46;3.30;;;2.95;;
6898;SDS011;3488;42.616;23.350;2022-10-29T11:27:23;6.13;;;2.50;;
6898;SDS011;3488;42.616;23.350;2022-10-29T11:30:00;5.03;;;2.45;;
6898;SDS011;3488;42.616;23.350;2022-10-29T11:32:32;2.72;;;2.40;;
6898;SDS011;3488;42.616;23.350;2022-10-29T11:35:13;4.13;;;2.75;;
6898;SDS011;3488;42.616;23.350;2022-10-29T11:37:45;2.95;;;2.38;;
6898;SDS011;3488;42.616;23.350;2022-10-29T11:40:18;7.18;;;2.40;;
6898;SDS011;3488;42.616;23.350;2022-10-29T11:42:49;2.92;;;2.70;;
6898;SDS011;3488;42.616;23.350;2022-10-29T11:45:16;2.75;;;2.55;;
6898;SDS011;3488;42.616;23.350;2022-10-29T11:47:57;2.78;;;2.40;;
6898;SDS011;3488;42.616;23.350;2022-10-29T11:50:36;3.45;;;2.42;;
6898;SDS011;3488;42.616;23.350;2022-10-29T11:53:25;3.83;;;3.08;;
6898;SDS011;3488;42.616;23.350;2022-10-29T11:56:10;3.55;;;2.50;;
6898;SDS011;3488;42.616;23.350;2022-10-29T11:58:48;3.13;;;2.33;;
6898;SDS011;3488;42.616;23.350;2022-10-29T12:01:24;5.80;;;2.35;;
6898;SDS011;3488;42.616;23.350;2022-10-29T12:04:05;5.38;;;2.00;;
6898;SDS011;3488;42.616;23.350;2022-10-29T12:06:48;2.28;;;2.08;;
6898;SDS011;3488;42.616;23.350;2022-10-29T12:09:30;4.93;;;1.98;;
6898;SDS011;3488;42.616;23.350;2022-10-29T12:12:07;2.20;;;2.10;;
6898;SDS011;3488;42.616;23.350;2022-10-29T12:14:39;2.20;;;2.05;;
6898;SDS011;3488;42.616;23.350;2022-10-29T12:17:13;1.70;;;1.60;;
6898;SDS011;3488;42.616;23.350;2022-10-29T12:19:44;2.95;;;1.90;;
6898;SDS011;3488;42.616;23.350;2022-10-29T12:22:27;2.30;;;2.10;;
6898;SDS011;3488;42.616;23.350;2022-10-29T12:25:08;3.30;;;1.50;;
6898;SDS011;3488;42.616;23.350;2022-10-29T12:27:46;2.05;;;1.77;;
6898;SDS011;3488;42.616;23.350;2022-10-29T12:30:20;1.98;;;1.88;;
6898;SDS011;3488;42.616;23.350;2022-10-29T12:32:52;2.60;;;1.50;;
6898;SDS011;3488;42.616;23.350;2022-10-29T12:35:28;1.80;;;1.70;;
6898;SDS011;3488;42.616;23.350;2022-10-29T12:38:04;2.47;;;2.28;;
6898;SDS011;3488;42.616;23.350;2022-10-29T12:40:44;4.15;;;2.35;;
6898;SDS011;3488;42.616;23.350;2022-10-29T12:43:18;3.70;;;2.13;;
6898;SDS011;3488;42.616;23.350;2022-10-29T12:45:49;1.30;;;1.30;;
6898;SDS011;3488;42.616;23.350;2022-10-29T12:48:26;1.58;;;1.48;;
6898;SDS011;3488;42.616;23.350;2022-10-29T12:51:02;3.60;;;1.48;;
6898;SDS011;3488;42.616;23.350;2022-10-29T12:53:38;3.10;;;1.48;;
6898;SDS011;3488;42.616;23.350;2022-10-29T12:56:14;4.50;;;1.58;;
6898;SDS011;3488;42.616;23.350;2022-10-29T12:58:43;1.38;;;1.27;;
6898;SDS011;3488;42.616;23.350;2022-10-29T13:04:23;3.50;;;2.20;;
6898;SDS011;3488;42.616;23.350;2022-10-29T13:06:59;1.40;;;1.30;;
6898;SDS011;3488;42.616;23.350;2022-10-29T13:09:31;1.58;;;1.48;;
6898;SDS011;3488;42.616;23.350;2022-10-29T13:12:00;2.22;;;1.90;;
6898;SDS011;3488;42.616;23.350;2022-10-29T13:14:33;6.45;;;1.65;;
6898;SDS011;3488;42.616;23.350;2022-10-29T13:17:04;3.30;;;2.10;;
6898;SDS011;3488;42.616;23.350;2022-10-29T13:20:00;2.22;;;2.13;;
6898;SDS011;3488;42.616;23.350;2022-10-29T13:34:09;1.75;;;1.63;;
6898;SDS011;3488;42.616;23.350;2022-10-29T13:36:36;1.35;;;1.25;;
6898;SDS011;3488;42.616;23.350;2022-10-29T13:39:16;3.40;;;1.45;;
6898;SDS011;3488;42.616;23.350;2022-10-29T13:41:48;1.88;;;1.48;;
6898;SDS011;3488;42.616;23.350;2022-10-29T13:44:18;1.45;;;1.35;;
6898;SDS011;3488;42.616;23.350;2022-10-29T13:46:50;1.55;;;1.45;;
6898;SDS011;3488;42.616;23.350;2022-10-29T13:49:22;1.40;;;1.30;;
6898;SDS011;3488;42.616;23.350;2022-10-29T13:51:55;31.08;;;22.35;;
6898;SDS011;3488;42.616;23.350;2022-10-29T13:54:28;2.80;;;2.10;;
6898;SDS011;3488;42.616;23.350;2022-10-29T13:57:01;1.17;;;1.08;;
6898;SDS011;3488;42.616;23.350;2022-10-29T13:59:35;3.45;;;1.42;;
6898;SDS011;3488;42.616;23.350;2022-10-29T14:02:15;1.25;;;1.25;;
6898;SDS011;3488;42.616;23.350;2022-10-29T14:04:53;2.40;;;1.27;;
6898;SDS011;3488;42.616;23.350;2022-10-29T14:07:26;1.10;;;1.00;;
6898;SDS011;3488;42.616;23.350;2022-10-29T14:10:01;6.28;;;5.35;;
6898;SDS011;3488;42.616;23.350;2022-10-29T14:12:32;4.78;;;4.38;;
6898;SDS011;3488;42.616;23.350;2022-10-29T14:15:03;1.25;;;1.20;;
6898;SDS011;3488;42.616;23.350;2022-10-29T14:17:36;1.45;;;1.35;;
6898;SDS011;3488;42.616;23.350;2022-10-29T14:20:04;1.60;;;1.50;;
6898;SDS011;3488;42.616;23.350;2022-10-29T14:22:44;1.75;;;1.65;;
6898;SDS011;3488;42.616;23.350;2022-10-29T14:30:58;1.75;;;1.20;;
6898;SDS011;3488;42.616;23.350;2022-10-29T14:33:29;1.48;;;1.10;;
6898;SDS011;3488;42.616;23.350;2022-10-29T14:35:59;1.33;;;1.23;;
6898;SDS011;3488;42.616;23.350;2022-10-29T14:38:32;1.80;;;1.42;;
6898;SDS011;3488;42.616;23.350;2022-10-29T14:41:06;12.20;;;10.88;;
6898;SDS011;3488;42.616;23.350;2022-10-29T14:43:33;2.72;;;1.38;;
6898;SDS011;3488;42.616;23.350;2022-10-29T14:46:08;1.23;;;1.23;;
6898;SDS011;3488;42.616;23.350;2022-10-29T14:48:43;1.38;;;1.27;;
6898;SDS011;3488;42.616;23.350;2022-10-29T14:51:19;1.55;;;1.30;;
6898;SDS011;3488;42.616;23.350;2022-10-29T14:53:51;1.35;;;1.27;;
6898;SDS011;3488;42.616;23.350;2022-10-29T14:56:20;1.13;;;1.13;;
6898;SDS011;3488;42.616;23.350;2022-10-29T14:58:57;0.82;;;0.82;;
6898;SDS011;3488;42.616;23.350;2022-10-29T15:01:25;1.55;;;1.17;;
6898;SDS011;3488;42.616;23.350;2022-10-29T15:03:56;0.93;;;0.93;;
6898;SDS011;3488;42.616;23.350;2022-10-29T15:06:25;0.95;;;0.95;;
6898;SDS011;3488;42.616;23.350;2022-10-29T15:08:53;1.02;;;0.88;;
6898;SDS011;3488;42.616;23.350;2022-10-29T15:14:23;1.17;;;1.15;;
6898;SDS011;3488;42.616;23.350;2022-10-29T15:16:51;1.33;;;0.90;;
6898;SDS011;3488;42.616;23.350;2022-10-29T15:19:20;1.73;;;1.13;;
6898;SDS011;3488;42.616;23.350;2022-10-29T15:21:47;0.90;;;0.90;;
6898;SDS011;3488;42.616;23.350;2022-10-29T15:24:16;1.00;;;1.00;;
6898;SDS011;3488;42.616;23.350;2022-10-29T15:26:47;1.13;;;1.13;;
6898;SDS011;3488;42.616;23.350;2022-10-29T15:29:17;13.50;;;10.05;;
6898;SDS011;3488;42.616;23.350;2022-10-29T15:31:49;6.53;;;1.10;;
6898;SDS011;3488;42.616;23.350;2022-10-29T15:34:23;0.95;;;0.95;;
6898;SDS011;3488;42.616;23.350;2022-10-29T15:36:56;0.98;;;0.98;;
6898;SDS011;3488;42.616;23.350;2022-10-29T15:39:24;0.80;;;0.80;;
6898;SDS011;3488;42.616;23.350;2022-10-29T15:41:53;1.35;;;1.25;;
6898;SDS011;3488;42.616;23.350;2022-10-29T15:44:30;2.53;;;1.23;;
6898;SDS011;3488;42.616;23.350;2022-10-29T15:47:15;3.45;;;1.98;;
6898;SDS011;3488;42.616;23.350;2022-10-29T15:49:46;1.75;;;1.65;;